Accueil
METAR-TAF:

METAR-TAF

Aéroports :

Aéroport régional Les Éplatures

La Chaux-de-Fonds, Suisse

latitude: 47-05-03N, longitude: 006-47-37E, altitude: 1027 m

Observation

Le bulletin a été fait il y a 33 minutes, à 01:20 UTC
Vent 7 kt de nord-est
Température -3°C
Humidité 86%
Pression 1017 hPa
Visibilité 10 km ou plus
pas de nuages en-dessous de 1500 mètres et pas de cumulonimbus.

METAR: LSGC 170120Z AUTO 05007KT CAVOK M03/M05 Q1017

Heure: 03:53 (01:53 UTC)

Prévision

Le bulletin a été fait il y a 11 heures et 28 minutes, à 14:25 UTC
Prévision valable du 16 à 15 UTC au 16 à 24 UTC
Vent 10 kt de nord-est
Visibilité 10 km ou plus
Nuages épars à une hauteur de 3500 ft

TAF: LSGC 161425Z 1615/1624 04010KT 9999 SCT035

Observations et prévisions météorologiques de plus de 4000 aéroports (messages METAR et TAF).

Les stations disponibles sont représentées par des disques jaunes et rouges sur la carte.

Passer la souris dessus pour voir le nom de la station.

Cliquer dessus pour voir les observations et prévisions météorologiques.

Pour changer de carte: cliquez sur les boutons verts avec une croix noire pour zoomer, sur le bouton vert avec un tiret pour effectuer un zoom arrière, ou sur les flèches vertes pour les cartes adjacentes.


METAR-TAF: